Vetal, South Dakota
Current Conditions -  °F | °C
As of 1:52 AM on Sunday 26 Oct 2014 (Local Time) from KIEN Reporting Station
Clear Clear  
Wind Chill: 14°   Ceiling: Unl
Heat Index: 14°   Visibility: 10mi
Dew Point:   Wind: 22mph
Humidity: 69%   Direction: 190°S
Pressure: 29.78"   Gusts: 31mph
Location:  43.2013°N, 101.679°W
Report Text: KIEN 260752Z AUTO 19019G27KT 10SM CLR 14/08 A2978 RMK AO2 PK WND 18028/0714 SLP065 T01390083
Loading
Personal Weather Stations






























Interactive Weather Map
Tropical Storm Tracking
New forecast layout! Learn more

10-Day Weather Forecast

Advertisements
Track Severe Weather on mobile